sensor_id;sensor_type;location;lat;lon;timestamp;temperature;humidity
12303;DHT22;6214;48.012;7.862;2023-04-25T00:02:14;12.00;99.90
12303;DHT22;6214;48.012;7.862;2023-04-25T00:04:41;11.90;99.90
12303;DHT22;6214;48.012;7.862;2023-04-25T00:07:09;12.00;99.90
12303;DHT22;6214;48.012;7.862;2023-04-25T00:09:37;11.90;99.90
12303;DHT22;6214;48.012;7.862;2023-04-25T00:12:04;12.00;99.90
12303;DHT22;6214;48.012;7.862;2023-04-25T00:14:31;11.80;99.90
12303;DHT22;6214;48.012;7.862;2023-04-25T00:17:01;11.70;99.90
12303;DHT22;6214;48.012;7.862;2023-04-25T00:19:28;11.70;99.90
12303;DHT22;6214;48.012;7.862;2023-04-25T00:21:55;11.60;99.90
12303;DHT22;6214;48.012;7.862;2023-04-25T00:24:22;11.60;99.90
12303;DHT22;6214;48.012;7.862;2023-04-25T00:26:49;11.60;99.90
12303;DHT22;6214;48.012;7.862;2023-04-25T00:29:16;11.60;99.90
12303;DHT22;6214;48.012;7.862;2023-04-25T00:31:43;11.80;99.90
12303;DHT22;6214;48.012;7.862;2023-04-25T00:34:10;11.70;99.90
12303;DHT22;6214;48.012;7.862;2023-04-25T00:36:37;11.60;99.90
12303;DHT22;6214;48.012;7.862;2023-04-25T00:39:04;11.60;99.90
12303;DHT22;6214;48.012;7.862;2023-04-25T00:41:31;11.60;99.90
12303;DHT22;6214;48.012;7.862;2023-04-25T00:43:59;11.60;99.90
12303;DHT22;6214;48.012;7.862;2023-04-25T00:46:27;11.60;99.90
12303;DHT22;6214;48.012;7.862;2023-04-25T00:48:54;11.50;99.90
12303;DHT22;6214;48.012;7.862;2023-04-25T00:51:21;11.50;99.90
12303;DHT22;6214;48.012;7.862;2023-04-25T00:53:49;11.50;99.90
12303;DHT22;6214;48.012;7.862;2023-04-25T00:56:18;11.60;99.90
12303;DHT22;6214;48.012;7.862;2023-04-25T00:58:45;11.60;99.90
12303;DHT22;6214;48.012;7.862;2023-04-25T01:01:12;11.50;99.90
12303;DHT22;6214;48.012;7.862;2023-04-25T01:03:40;11.40;99.90
12303;DHT22;6214;48.012;7.862;2023-04-25T01:06:09;11.40;99.90
12303;DHT22;6214;48.012;7.862;2023-04-25T01:08:37;11.30;99.90
12303;DHT22;6214;48.012;7.862;2023-04-25T01:11:05;11.40;99.90
12303;DHT22;6214;48.012;7.862;2023-04-25T01:13:33;11.40;99.90
12303;DHT22;6214;48.012;7.862;2023-04-25T01:16:01;11.50;99.90
12303;DHT22;6214;48.012;7.862;2023-04-25T01:18:29;11.50;99.90
12303;DHT22;6214;48.012;7.862;2023-04-25T01:21:05;11.40;99.90
12303;DHT22;6214;48.012;7.862;2023-04-25T01:23:35;11.40;99.90
12303;DHT22;6214;48.012;7.862;2023-04-25T01:26:03;11.40;99.90
12303;DHT22;6214;48.012;7.862;2023-04-25T01:28:30;11.20;99.90
12303;DHT22;6214;48.012;7.862;2023-04-25T01:30:58;11.10;99.90
12303;DHT22;6214;48.012;7.862;2023-04-25T01:33:25;11.20;99.90
12303;DHT22;6214;48.012;7.862;2023-04-25T01:35:52;11.10;99.90
12303;DHT22;6214;48.012;7.862;2023-04-25T01:38:19;11.10;99.90
12303;DHT22;6214;48.012;7.862;2023-04-25T01:40:46;11.20;99.90
12303;DHT22;6214;48.012;7.862;2023-04-25T01:43:15;11.00;99.90
12303;DHT22;6214;48.012;7.862;2023-04-25T01:45:43;11.10;99.90
12303;DHT22;6214;48.012;7.862;2023-04-25T01:48:12;11.10;99.90
12303;DHT22;6214;48.012;7.862;2023-04-25T01:50:40;11.10;99.90
12303;DHT22;6214;48.012;7.862;2023-04-25T01:53:09;11.10;99.90
12303;DHT22;6214;48.012;7.862;2023-04-25T01:55:37;11.20;99.90
12303;DHT22;6214;48.012;7.862;2023-04-25T01:58:04;11.30;99.90
12303;DHT22;6214;48.012;7.862;2023-04-25T02:00:36;11.40;99.90
12303;DHT22;6214;48.012;7.862;2023-04-25T02:03:07;11.40;99.90
12303;DHT22;6214;48.012;7.862;2023-04-25T02:05:36;11.40;99.90
12303;DHT22;6214;48.012;7.862;2023-04-25T02:08:05;11.50;99.90
12303;DHT22;6214;48.012;7.862;2023-04-25T02:10:33;11.50;99.90
12303;DHT22;6214;48.012;7.862;2023-04-25T02:13:00;11.60;99.90
12303;DHT22;6214;48.012;7.862;2023-04-25T02:15:27;11.60;99.90
12303;DHT22;6214;48.012;7.862;2023-04-25T02:17:54;11.60;99.90
12303;DHT22;6214;48.012;7.862;2023-04-25T02:20:23;11.50;99.90
12303;DHT22;6214;48.012;7.862;2023-04-25T02:22:50;11.60;99.90
12303;DHT22;6214;48.012;7.862;2023-04-25T02:25:19;11.60;99.90
12303;DHT22;6214;48.012;7.862;2023-04-25T02:27:47;11.70;99.90
12303;DHT22;6214;48.012;7.862;2023-04-25T02:30:14;11.60;99.90
12303;DHT22;6214;48.012;7.862;2023-04-25T02:32:42;11.50;99.90
12303;DHT22;6214;48.012;7.862;2023-04-25T02:35:09;11.50;99.90
12303;DHT22;6214;48.012;7.862;2023-04-25T02:37:37;11.50;99.90
12303;DHT22;6214;48.012;7.862;2023-04-25T02:40:05;11.40;99.90
12303;DHT22;6214;48.012;7.862;2023-04-25T02:42:32;11.40;99.90
12303;DHT22;6214;48.012;7.862;2023-04-25T02:44:59;11.30;99.90
12303;DHT22;6214;48.012;7.862;2023-04-25T02:47:27;11.30;99.90
12303;DHT22;6214;48.012;7.862;2023-04-25T02:49:54;11.30;99.90
12303;DHT22;6214;48.012;7.862;2023-04-25T02:52:21;11.20;99.90
12303;DHT22;6214;48.012;7.862;2023-04-25T02:54:48;11.20;99.90
12303;DHT22;6214;48.012;7.862;2023-04-25T02:57:15;11.40;99.90
12303;DHT22;6214;48.012;7.862;2023-04-25T02:59:42;11.50;99.90
12303;DHT22;6214;48.012;7.862;2023-04-25T03:02:09;11.50;99.90
12303;DHT22;6214;48.012;7.862;2023-04-25T03:04:36;11.50;99.90
12303;DHT22;6214;48.012;7.862;2023-04-25T03:07:03;11.60;99.90
12303;DHT22;6214;48.012;7.862;2023-04-25T03:09:31;11.60;99.90
12303;DHT22;6214;48.012;7.862;2023-04-25T03:11:57;11.60;99.90
12303;DHT22;6214;48.012;7.862;2023-04-25T03:14:24;11.60;99.90
12303;DHT22;6214;48.012;7.862;2023-04-25T03:16:51;11.50;99.90
12303;DHT22;6214;48.012;7.862;2023-04-25T03:19:19;11.40;99.90
12303;DHT22;6214;48.012;7.862;2023-04-25T03:21:47;11.50;99.90
12303;DHT22;6214;48.012;7.862;2023-04-25T03:24:14;11.50;99.90
12303;DHT22;6214;48.012;7.862;2023-04-25T03:26:41;11.50;99.90
12303;DHT22;6214;48.012;7.862;2023-04-25T03:29:08;11.60;99.90
12303;DHT22;6214;48.012;7.862;2023-04-25T03:31:35;11.60;99.90
12303;DHT22;6214;48.012;7.862;2023-04-25T03:34:02;11.50;99.90
12303;DHT22;6214;48.012;7.862;2023-04-25T03:36:29;11.60;99.90
12303;DHT22;6214;48.012;7.862;2023-04-25T03:38:57;11.50;99.90
12303;DHT22;6214;48.012;7.862;2023-04-25T03:41:24;11.60;99.90
12303;DHT22;6214;48.012;7.862;2023-04-25T03:43:51;11.70;99.90
12303;DHT22;6214;48.012;7.862;2023-04-25T03:46:19;11.60;99.90
12303;DHT22;6214;48.012;7.862;2023-04-25T03:48:46;11.70;99.90
12303;DHT22;6214;48.012;7.862;2023-04-25T03:51:13;11.70;99.90
12303;DHT22;6214;48.012;7.862;2023-04-25T03:53:40;11.60;99.90
12303;DHT22;6214;48.012;7.862;2023-04-25T03:56:07;11.50;99.90
12303;DHT22;6214;48.012;7.862;2023-04-25T03:58:33;11.40;99.90
12303;DHT22;6214;48.012;7.862;2023-04-25T04:01:01;11.30;99.90
12303;DHT22;6214;48.012;7.862;2023-04-25T04:03:30;11.30;99.90
12303;DHT22;6214;48.012;7.862;2023-04-25T04:05:57;11.20;99.90
12303;DHT22;6214;48.012;7.862;2023-04-25T04:08:24;11.20;99.90
12303;DHT22;6214;48.012;7.862;2023-04-25T04:10:51;11.00;99.90
12303;DHT22;6214;48.012;7.862;2023-04-25T04:13:18;10.90;99.90
12303;DHT22;6214;48.012;7.862;2023-04-25T04:15:45;10.90;99.90
12303;DHT22;6214;48.012;7.862;2023-04-25T04:18:12;10.90;99.90
12303;DHT22;6214;48.012;7.862;2023-04-25T04:20:39;10.90;99.90
12303;DHT22;6214;48.012;7.862;2023-04-25T04:23:06;10.80;99.90
12303;DHT22;6214;48.012;7.862;2023-04-25T04:25:33;10.80;99.90
12303;DHT22;6214;48.012;7.862;2023-04-25T04:28:01;10.80;99.90
12303;DHT22;6214;48.012;7.862;2023-04-25T04:30:28;10.90;99.90
12303;DHT22;6214;48.012;7.862;2023-04-25T04:32:57;11.00;99.90
12303;DHT22;6214;48.012;7.862;2023-04-25T04:35:24;11.00;99.90
12303;DHT22;6214;48.012;7.862;2023-04-25T04:37:52;11.20;99.90
12303;DHT22;6214;48.012;7.862;2023-04-25T04:40:19;11.10;99.90
12303;DHT22;6214;48.012;7.862;2023-04-25T04:42:47;11.20;99.90
12303;DHT22;6214;48.012;7.862;2023-04-25T04:45:15;11.30;99.90
12303;DHT22;6214;48.012;7.862;2023-04-25T04:47:42;11.30;99.90
12303;DHT22;6214;48.012;7.862;2023-04-25T04:50:10;11.30;99.90
12303;DHT22;6214;48.012;7.862;2023-04-25T04:52:38;11.20;99.90
12303;DHT22;6214;48.012;7.862;2023-04-25T04:55:05;11.20;99.90
12303;DHT22;6214;48.012;7.862;2023-04-25T04:57:32;11.40;99.90
12303;DHT22;6214;48.012;7.862;2023-04-25T05:00:00;11.40;99.90
12303;DHT22;6214;48.012;7.862;2023-04-25T05:02:27;11.40;99.90
12303;DHT22;6214;48.012;7.862;2023-04-25T05:04:55;11.50;99.90
12303;DHT22;6214;48.012;7.862;2023-04-25T05:07:23;11.50;99.90
12303;DHT22;6214;48.012;7.862;2023-04-25T05:09:50;11.50;99.90
12303;DHT22;6214;48.012;7.862;2023-04-25T05:12:17;11.60;99.90
12303;DHT22;6214;48.012;7.862;2023-04-25T05:14:44;11.60;99.90
12303;DHT22;6214;48.012;7.862;2023-04-25T05:17:11;11.60;99.90
12303;DHT22;6214;48.012;7.862;2023-04-25T05:19:39;11.40;99.90
12303;DHT22;6214;48.012;7.862;2023-04-25T05:22:06;11.50;99.90
12303;DHT22;6214;48.012;7.862;2023-04-25T05:24:33;11.50;99.90
12303;DHT22;6214;48.012;7.862;2023-04-25T05:27:00;11.30;99.90
12303;DHT22;6214;48.012;7.862;2023-04-25T05:29:27;11.00;99.90
12303;DHT22;6214;48.012;7.862;2023-04-25T05:31:53;10.60;99.90
12303;DHT22;6214;48.012;7.862;2023-04-25T05:34:20;10.50;99.90
12303;DHT22;6214;48.012;7.862;2023-04-25T05:36:47;10.30;99.90
12303;DHT22;6214;48.012;7.862;2023-04-25T05:39:16;10.10;99.90
12303;DHT22;6214;48.012;7.862;2023-04-25T05:41:44;10.00;99.90
12303;DHT22;6214;48.012;7.862;2023-04-25T05:44:11;9.90;99.90
12303;DHT22;6214;48.012;7.862;2023-04-25T05:46:38;9.90;99.90
12303;DHT22;6214;48.012;7.862;2023-04-25T05:49:04;9.90;99.90
12303;DHT22;6214;48.012;7.862;2023-04-25T05:51:32;9.80;99.90
12303;DHT22;6214;48.012;7.862;2023-04-25T05:53:59;9.70;99.90
12303;DHT22;6214;48.012;7.862;2023-04-25T05:56:26;9.80;99.90
12303;DHT22;6214;48.012;7.862;2023-04-25T05:58:53;9.50;99.90
12303;DHT22;6214;48.012;7.862;2023-04-25T06:01:19;9.30;99.90
12303;DHT22;6214;48.012;7.862;2023-04-25T06:03:47;9.30;99.90
12303;DHT22;6214;48.012;7.862;2023-04-25T06:06:14;9.30;99.90
12303;DHT22;6214;48.012;7.862;2023-04-25T06:08:41;9.10;99.90
12303;DHT22;6214;48.012;7.862;2023-04-25T06:11:08;9.00;99.90
12303;DHT22;6214;48.012;7.862;2023-04-25T06:13:35;8.80;99.90
12303;DHT22;6214;48.012;7.862;2023-04-25T06:16:02;8.80;99.90
12303;DHT22;6214;48.012;7.862;2023-04-25T06:18:29;8.80;99.90
12303;DHT22;6214;48.012;7.862;2023-04-25T06:20:57;9.00;99.90
12303;DHT22;6214;48.012;7.862;2023-04-25T06:23:23;9.00;99.90
12303;DHT22;6214;48.012;7.862;2023-04-25T06:25:50;8.90;99.90
12303;DHT22;6214;48.012;7.862;2023-04-25T06:28:18;8.80;99.90
12303;DHT22;6214;48.012;7.862;2023-04-25T06:30:45;8.80;99.90
12303;DHT22;6214;48.012;7.862;2023-04-25T06:33:12;8.80;99.90
12303;DHT22;6214;48.012;7.862;2023-04-25T06:35:39;8.90;99.90
12303;DHT22;6214;48.012;7.862;2023-04-25T06:38:06;9.10;99.90
12303;DHT22;6214;48.012;7.862;2023-04-25T06:40:33;9.20;99.90
12303;DHT22;6214;48.012;7.862;2023-04-25T06:43:00;9.20;99.90
12303;DHT22;6214;48.012;7.862;2023-04-25T06:45:27;9.20;99.90
12303;DHT22;6214;48.012;7.862;2023-04-25T06:47:54;9.10;99.90
12303;DHT22;6214;48.012;7.862;2023-04-25T06:50:21;9.10;99.90
12303;DHT22;6214;48.012;7.862;2023-04-25T06:52:48;9.10;99.90
12303;DHT22;6214;48.012;7.862;2023-04-25T06:55:15;9.10;99.90
12303;DHT22;6214;48.012;7.862;2023-04-25T06:57:42;9.30;99.90
12303;DHT22;6214;48.012;7.862;2023-04-25T07:00:09;9.30;99.90
12303;DHT22;6214;48.012;7.862;2023-04-25T07:02:37;9.20;99.90
12303;DHT22;6214;48.012;7.862;2023-04-25T07:05:05;9.10;99.90
12303;DHT22;6214;48.012;7.862;2023-04-25T07:07:32;9.10;99.90
12303;DHT22;6214;48.012;7.862;2023-04-25T07:09:59;9.30;99.90
12303;DHT22;6214;48.012;7.862;2023-04-25T07:12:26;9.30;99.90
12303;DHT22;6214;48.012;7.862;2023-04-25T07:14:53;9.20;99.90
12303;DHT22;6214;48.012;7.862;2023-04-25T07:17:20;9.00;99.90
12303;DHT22;6214;48.012;7.862;2023-04-25T07:19:46;9.30;99.90
12303;DHT22;6214;48.012;7.862;2023-04-25T07:22:13;9.10;99.90
12303;DHT22;6214;48.012;7.862;2023-04-25T07:24:40;9.30;99.90
12303;DHT22;6214;48.012;7.862;2023-04-25T07:27:07;9.10;99.90
12303;DHT22;6214;48.012;7.862;2023-04-25T07:29:34;9.40;99.90
12303;DHT22;6214;48.012;7.862;2023-04-25T07:32:04;9.40;99.90
12303;DHT22;6214;48.012;7.862;2023-04-25T07:34:31;9.30;99.90
12303;DHT22;6214;48.012;7.862;2023-04-25T07:36:58;9.30;99.90
12303;DHT22;6214;48.012;7.862;2023-04-25T07:39:26;9.20;99.90
12303;DHT22;6214;48.012;7.862;2023-04-25T07:41:53;9.20;99.90
12303;DHT22;6214;48.012;7.862;2023-04-25T07:44:21;9.20;99.90
12303;DHT22;6214;48.012;7.862;2023-04-25T07:46:48;9.20;99.90
12303;DHT22;6214;48.012;7.862;2023-04-25T07:49:15;9.30;99.90
12303;DHT22;6214;48.012;7.862;2023-04-25T07:51:42;9.60;99.90
12303;DHT22;6214;48.012;7.862;2023-04-25T07:54:17;9.60;99.90
12303;DHT22;6214;48.012;7.862;2023-04-25T07:56:44;9.60;99.90
12303;DHT22;6214;48.012;7.862;2023-04-25T07:59:19;9.70;99.90
12303;DHT22;6214;48.012;7.862;2023-04-25T08:01:46;9.80;99.90
12303;DHT22;6214;48.012;7.862;2023-04-25T08:04:13;10.00;99.90
12303;DHT22;6214;48.012;7.862;2023-04-25T08:06:40;10.30;99.90
12303;DHT22;6214;48.012;7.862;2023-04-25T08:09:07;10.20;99.90
12303;DHT22;6214;48.012;7.862;2023-04-25T08:11:36;10.40;99.90
12303;DHT22;6214;48.012;7.862;2023-04-25T08:14:03;10.60;99.90
12303;DHT22;6214;48.012;7.862;2023-04-25T08:16:30;10.50;99.90
12303;DHT22;6214;48.012;7.862;2023-04-25T08:18:58;10.50;99.90
12303;DHT22;6214;48.012;7.862;2023-04-25T08:21:25;10.60;99.90
12303;DHT22;6214;48.012;7.862;2023-04-25T08:23:54;10.80;99.90
12303;DHT22;6214;48.012;7.862;2023-04-25T08:26:21;10.80;99.90
12303;DHT22;6214;48.012;7.862;2023-04-25T08:28:48;10.60;99.90
12303;DHT22;6214;48.012;7.862;2023-04-25T08:31:15;10.60;99.90
12303;DHT22;6214;48.012;7.862;2023-04-25T08:33:43;10.60;99.90
12303;DHT22;6214;48.012;7.862;2023-04-25T08:36:11;10.30;99.90
12303;DHT22;6214;48.012;7.862;2023-04-25T08:38:38;10.10;99.90
12303;DHT22;6214;48.012;7.862;2023-04-25T08:41:06;10.00;99.90
12303;DHT22;6214;48.012;7.862;2023-04-25T08:43:34;10.30;99.90
12303;DHT22;6214;48.012;7.862;2023-04-25T08:46:01;10.20;99.90
12303;DHT22;6214;48.012;7.862;2023-04-25T08:48:32;10.20;99.90
12303;DHT22;6214;48.012;7.862;2023-04-25T08:51:01;10.40;99.90
12303;DHT22;6214;48.012;7.862;2023-04-25T08:53:31;10.40;99.90
12303;DHT22;6214;48.012;7.862;2023-04-25T08:56:01;10.20;99.90
12303;DHT22;6214;48.012;7.862;2023-04-25T08:58:30;10.50;99.90
12303;DHT22;6214;48.012;7.862;2023-04-25T09:00:59;10.70;99.90
12303;DHT22;6214;48.012;7.862;2023-04-25T09:03:27;10.60;99.90
12303;DHT22;6214;48.012;7.862;2023-04-25T09:05:55;10.80;99.90
12303;DHT22;6214;48.012;7.862;2023-04-25T09:08:22;10.80;99.90
12303;DHT22;6214;48.012;7.862;2023-04-25T09:10:49;10.50;99.90
12303;DHT22;6214;48.012;7.862;2023-04-25T09:13:24;10.30;99.90
12303;DHT22;6214;48.012;7.862;2023-04-25T09:21:05;10.50;99.90
12303;DHT22;6214;48.012;7.862;2023-04-25T09:23:47;10.70;99.90
12303;DHT22;6214;48.012;7.862;2023-04-25T09:26:16;10.70;99.90
12303;DHT22;6214;48.012;7.862;2023-04-25T09:28:44;10.70;99.90
12303;DHT22;6214;48.012;7.862;2023-04-25T09:31:12;10.90;99.90
12303;DHT22;6214;48.012;7.862;2023-04-25T09:33:47;11.00;99.90
12303;DHT22;6214;48.012;7.862;2023-04-25T09:36:16;11.00;99.90
12303;DHT22;6214;48.012;7.862;2023-04-25T09:38:44;11.20;99.90
12303;DHT22;6214;48.012;7.862;2023-04-25T09:41:12;11.30;99.90
12303;DHT22;6214;48.012;7.862;2023-04-25T09:43:39;11.20;99.90
12303;DHT22;6214;48.012;7.862;2023-04-25T09:46:10;11.50;99.90
12303;DHT22;6214;48.012;7.862;2023-04-25T09:48:38;11.60;99.90
12303;DHT22;6214;48.012;7.862;2023-04-25T09:53:40;12.40;99.90
12303;DHT22;6214;48.012;7.862;2023-04-25T09:56:09;12.50;99.90
12303;DHT22;6214;48.012;7.862;2023-04-25T09:58:38;12.70;99.90
12303;DHT22;6214;48.012;7.862;2023-04-25T10:01:07;12.90;99.90
12303;DHT22;6214;48.012;7.862;2023-04-25T10:03:36;12.90;99.90
12303;DHT22;6214;48.012;7.862;2023-04-25T10:06:07;12.80;99.90
12303;DHT22;6214;48.012;7.862;2023-04-25T10:08:37;12.90;99.90
12303;DHT22;6214;48.012;7.862;2023-04-25T10:11:05;13.20;99.90
12303;DHT22;6214;48.012;7.862;2023-04-25T10:13:34;13.40;99.90
12303;DHT22;6214;48.012;7.862;2023-04-25T10:16:03;13.20;99.90
12303;DHT22;6214;48.012;7.862;2023-04-25T10:18:32;12.80;99.90
12303;DHT22;6214;48.012;7.862;2023-04-25T10:21:04;12.40;99.90
12303;DHT22;6214;48.012;7.862;2023-04-25T10:23:33;12.00;99.90
12303;DHT22;6214;48.012;7.862;2023-04-25T10:26:01;11.90;99.90
12303;DHT22;6214;48.012;7.862;2023-04-25T10:28:28;11.80;99.90
12303;DHT22;6214;48.012;7.862;2023-04-25T10:31:03;11.50;99.90
12303;DHT22;6214;48.012;7.862;2023-04-25T10:33:38;11.30;99.90
12303;DHT22;6214;48.012;7.862;2023-04-25T10:36:20;11.10;99.90
12303;DHT22;6214;48.012;7.862;2023-04-25T10:38:50;11.20;99.90
12303;DHT22;6214;48.012;7.862;2023-04-25T10:41:19;11.50;99.90
12303;DHT22;6214;48.012;7.862;2023-04-25T10:43:48;12.40;99.90
12303;DHT22;6214;48.012;7.862;2023-04-25T10:46:24;13.00;99.90
12303;DHT22;6214;48.012;7.862;2023-04-25T10:48:53;13.10;99.90
12303;DHT22;6214;48.012;7.862;2023-04-25T10:51:23;13.10;99.90
12303;DHT22;6214;48.012;7.862;2023-04-25T10:54:04;13.40;99.90
12303;DHT22;6214;48.012;7.862;2023-04-25T10:59:18;14.80;99.90
12303;DHT22;6214;48.012;7.862;2023-04-25T11:01:52;15.30;99.90
12303;DHT22;6214;48.012;7.862;2023-04-25T11:04:28;15.30;99.90
12303;DHT22;6214;48.012;7.862;2023-04-25T11:09:53;15.70;99.90
12303;DHT22;6214;48.012;7.862;2023-04-25T11:12:20;15.30;99.90
12303;DHT22;6214;48.012;7.862;2023-04-25T11:14:47;15.40;99.90
12303;DHT22;6214;48.012;7.862;2023-04-25T11:17:14;16.00;99.90
12303;DHT22;6214;48.012;7.862;2023-04-25T11:19:41;16.10;99.90
12303;DHT22;6214;48.012;7.862;2023-04-25T11:22:10;15.90;99.90
12303;DHT22;6214;48.012;7.862;2023-04-25T11:24:37;15.70;99.90
12303;DHT22;6214;48.012;7.862;2023-04-25T11:27:05;15.70;99.90
12303;DHT22;6214;48.012;7.862;2023-04-25T11:29:35;15.50;99.90
12303;DHT22;6214;48.012;7.862;2023-04-25T11:32:02;16.00;99.90
12303;DHT22;6214;48.012;7.862;2023-04-25T11:34:30;15.90;99.90
12303;DHT22;6214;48.012;7.862;2023-04-25T11:37:02;15.30;99.90
12303;DHT22;6214;48.012;7.862;2023-04-25T11:39:29;15.30;99.90
12303;DHT22;6214;48.012;7.862;2023-04-25T11:41:56;15.60;99.90
12303;DHT22;6214;48.012;7.862;2023-04-25T11:44:23;15.60;99.90
12303;DHT22;6214;48.012;7.862;2023-04-25T11:46:50;15.50;99.90
12303;DHT22;6214;48.012;7.862;2023-04-25T11:49:17;15.10;99.90
12303;DHT22;6214;48.012;7.862;2023-04-25T11:51:47;14.50;99.90
12303;DHT22;6214;48.012;7.862;2023-04-25T11:54:14;13.50;99.90
12303;DHT22;6214;48.012;7.862;2023-04-25T11:56:42;13.00;99.90
12303;DHT22;6214;48.012;7.862;2023-04-25T11:59:09;12.50;99.90
12303;DHT22;6214;48.012;7.862;2023-04-25T12:01:39;12.30;99.90
12303;DHT22;6214;48.012;7.862;2023-04-25T12:06:43;12.50;99.90
12303;DHT22;6214;48.012;7.862;2023-04-25T12:09:11;12.70;99.90
12303;DHT22;6214;48.012;7.862;2023-04-25T12:11:47;13.60;99.90
12303;DHT22;6214;48.012;7.862;2023-04-25T12:14:24;14.10;99.90
12303;DHT22;6214;48.012;7.862;2023-04-25T12:16:57;14.70;99.90
12303;DHT22;6214;48.012;7.862;2023-04-25T12:19:25;14.90;99.90
12303;DHT22;6214;48.012;7.862;2023-04-25T12:21:53;15.10;99.90
12303;DHT22;6214;48.012;7.862;2023-04-25T12:24:29;15.20;99.90
12303;DHT22;6214;48.012;7.862;2023-04-25T12:27:05;15.10;99.90
12303;DHT22;6214;48.012;7.862;2023-04-25T12:29:34;14.90;99.90
12303;DHT22;6214;48.012;7.862;2023-04-25T12:32:16;14.60;99.90
12303;DHT22;6214;48.012;7.862;2023-04-25T12:34:43;14.70;99.90
12303;DHT22;6214;48.012;7.862;2023-04-25T12:37:10;14.80;99.90
12303;DHT22;6214;48.012;7.862;2023-04-25T12:39:38;15.00;99.90
12303;DHT22;6214;48.012;7.862;2023-04-25T12:42:05;15.30;99.90
12303;DHT22;6214;48.012;7.862;2023-04-25T12:44:35;15.20;99.90
12303;DHT22;6214;48.012;7.862;2023-04-25T12:47:03;15.50;99.90
12303;DHT22;6214;48.012;7.862;2023-04-25T12:49:30;15.50;99.90
12303;DHT22;6214;48.012;7.862;2023-04-25T12:51:58;15.50;99.90
12303;DHT22;6214;48.012;7.862;2023-04-25T12:54:25;15.40;99.90
12303;DHT22;6214;48.012;7.862;2023-04-25T12:56:52;15.60;99.90
12303;DHT22;6214;48.012;7.862;2023-04-25T12:59:19;15.80;99.90
12303;DHT22;6214;48.012;7.862;2023-04-25T13:01:47;16.20;99.90
12303;DHT22;6214;48.012;7.862;2023-04-25T13:04:15;16.70;99.90
12303;DHT22;6214;48.012;7.862;2023-04-25T13:06:43;17.20;99.90
12303;DHT22;6214;48.012;7.862;2023-04-25T13:09:10;17.70;99.90
12303;DHT22;6214;48.012;7.862;2023-04-25T13:11:39;17.30;99.90
12303;DHT22;6214;48.012;7.862;2023-04-25T13:14:07;17.00;99.90
12303;DHT22;6214;48.012;7.862;2023-04-25T13:16:34;16.50;99.90
12303;DHT22;6214;48.012;7.862;2023-04-25T13:19:01;16.50;99.90
12303;DHT22;6214;48.012;7.862;2023-04-25T13:21:30;16.50;99.90
12303;DHT22;6214;48.012;7.862;2023-04-25T13:23:59;16.50;99.90
12303;DHT22;6214;48.012;7.862;2023-04-25T13:26:26;15.30;99.90
12303;DHT22;6214;48.012;7.862;2023-04-25T13:28:53;13.80;99.90
12303;DHT22;6214;48.012;7.862;2023-04-25T13:31:20;12.90;99.90
12303;DHT22;6214;48.012;7.862;2023-04-25T13:33:47;12.10;99.90
12303;DHT22;6214;48.012;7.862;2023-04-25T13:36:15;11.60;99.90
12303;DHT22;6214;48.012;7.862;2023-04-25T13:38:42;11.40;99.90
12303;DHT22;6214;48.012;7.862;2023-04-25T13:41:10;11.30;99.90
12303;DHT22;6214;48.012;7.862;2023-04-25T13:43:42;11.40;99.90
12303;DHT22;6214;48.012;7.862;2023-04-25T13:46:09;12.00;99.90
12303;DHT22;6214;48.012;7.862;2023-04-25T13:48:56;12.40;99.90
12303;DHT22;6214;48.012;7.862;2023-04-25T13:51:37;12.80;99.90
12303;DHT22;6214;48.012;7.862;2023-04-25T13:54:04;12.80;99.90
12303;DHT22;6214;48.012;7.862;2023-04-25T13:56:31;12.90;99.90
12303;DHT22;6214;48.012;7.862;2023-04-25T13:58:58;13.00;99.90
12303;DHT22;6214;48.012;7.862;2023-04-25T14:01:25;13.20;99.90
12303;DHT22;6214;48.012;7.862;2023-04-25T14:03:53;13.70;99.90
12303;DHT22;6214;48.012;7.862;2023-04-25T14:06:20;13.90;99.90
12303;DHT22;6214;48.012;7.862;2023-04-25T14:08:50;14.10;99.90
12303;DHT22;6214;48.012;7.862;2023-04-25T14:11:17;14.30;99.90
12303;DHT22;6214;48.012;7.862;2023-04-25T14:13:47;14.50;99.90
12303;DHT22;6214;48.012;7.862;2023-04-25T14:16:16;14.60;99.90
12303;DHT22;6214;48.012;7.862;2023-04-25T14:18:44;14.40;99.90
12303;DHT22;6214;48.012;7.862;2023-04-25T14:21:10;14.20;99.90
12303;DHT22;6214;48.012;7.862;2023-04-25T14:23:37;14.60;99.90
12303;DHT22;6214;48.012;7.862;2023-04-25T14:26:05;15.10;99.90
12303;DHT22;6214;48.012;7.862;2023-04-25T14:28:32;15.50;99.90
12303;DHT22;6214;48.012;7.862;2023-04-25T14:30:59;15.60;99.90
12303;DHT22;6214;48.012;7.862;2023-04-25T14:33:27;15.70;99.90
12303;DHT22;6214;48.012;7.862;2023-04-25T14:35:54;15.70;99.90
12303;DHT22;6214;48.012;7.862;2023-04-25T14:38:21;15.30;99.90
12303;DHT22;6214;48.012;7.862;2023-04-25T14:40:50;15.20;99.90
12303;DHT22;6214;48.012;7.862;2023-04-25T14:43:17;15.10;99.90
12303;DHT22;6214;48.012;7.862;2023-04-25T14:45:44;15.10;99.90
12303;DHT22;6214;48.012;7.862;2023-04-25T14:48:12;15.20;99.90
12303;DHT22;6214;48.012;7.862;2023-04-25T14:50:39;15.00;99.90
12303;DHT22;6214;48.012;7.862;2023-04-25T14:53:06;14.60;99.90
12303;DHT22;6214;48.012;7.862;2023-04-25T14:55:33;14.60;99.90
12303;DHT22;6214;48.012;7.862;2023-04-25T14:58:00;14.20;99.90
12303;DHT22;6214;48.012;7.862;2023-04-25T15:00:27;13.70;99.90
12303;DHT22;6214;48.012;7.862;2023-04-25T15:02:55;13.00;99.90
12303;DHT22;6214;48.012;7.862;2023-04-25T15:05:23;12.20;99.90
12303;DHT22;6214;48.012;7.862;2023-04-25T15:07:50;11.70;99.90
12303;DHT22;6214;48.012;7.862;2023-04-25T15:10:18;11.30;99.90
12303;DHT22;6214;48.012;7.862;2023-04-25T15:12:45;11.20;99.90
12303;DHT22;6214;48.012;7.862;2023-04-25T15:15:14;11.10;99.90
12303;DHT22;6214;48.012;7.862;2023-04-25T15:17:52;11.00;99.90
12303;DHT22;6214;48.012;7.862;2023-04-25T15:20:24;11.10;99.90
12303;DHT22;6214;48.012;7.862;2023-04-25T15:22:51;11.20;99.90
12303;DHT22;6214;48.012;7.862;2023-04-25T15:25:18;11.40;99.90
12303;DHT22;6214;48.012;7.862;2023-04-25T15:27:46;11.60;99.90
12303;DHT22;6214;48.012;7.862;2023-04-25T15:30:18;11.90;99.90
12303;DHT22;6214;48.012;7.862;2023-04-25T15:32:46;11.80;99.90
12303;DHT22;6214;48.012;7.862;2023-04-25T15:35:14;12.00;99.90
12303;DHT22;6214;48.012;7.862;2023-04-25T15:37:42;12.00;99.90
12303;DHT22;6214;48.012;7.862;2023-04-25T15:40:11;12.20;99.90
12303;DHT22;6214;48.012;7.862;2023-04-25T15:42:41;12.10;99.90
12303;DHT22;6214;48.012;7.862;2023-04-25T15:45:10;12.20;99.90
12303;DHT22;6214;48.012;7.862;2023-04-25T15:47:38;12.10;99.90
12303;DHT22;6214;48.012;7.862;2023-04-25T15:50:07;12.20;99.90
12303;DHT22;6214;48.012;7.862;2023-04-25T15:52:34;12.40;99.90
12303;DHT22;6214;48.012;7.862;2023-04-25T15:55:03;12.40;99.90
12303;DHT22;6214;48.012;7.862;2023-04-25T15:57:32;12.80;99.90
12303;DHT22;6214;48.012;7.862;2023-04-25T16:00:00;12.80;99.90
12303;DHT22;6214;48.012;7.862;2023-04-25T16:02:27;13.00;99.90
12303;DHT22;6214;48.012;7.862;2023-04-25T16:04:56;13.10;99.90
12303;DHT22;6214;48.012;7.862;2023-04-25T16:07:23;13.20;99.90
12303;DHT22;6214;48.012;7.862;2023-04-25T16:09:50;13.20;99.90